Time;durP1;ratioP1;P1;durP2;ratioP2;P2;SDS_P1;SDS_P2;PMS_P1;PMS_P2;Temp;Humidity;BMP_temperature;BMP_pressure;BME280_temperature;BME280_humidity;BME280_pressure;Samples;Min_cycle;Max_cycle;Signal;HPM_P1;HPM_P2
2022/03/16 00:02:19;;;;;;;12.03;10.53;;;6.70;99.90;;;;;;4986040;28;20197;-76
2022/03/16 00:04:48;;;;;;;12.77;9.97;;;6.70;99.90;;;;;;4967040;28;20218;-77
2022/03/16 00:07:15;;;;;;;11.53;10.30;;;6.60;99.90;;;;;;4980366;28;20192;-79
2022/03/16 00:09:44;;;;;;;11.73;10.30;;;6.70;99.90;;;;;;4986939;28;20216;-76
2022/03/16 00:12:13;;;;;;;12.60;10.00;;;6.70;99.90;;;;;;4987074;28;20225;-76
2022/03/16 00:14:41;;;;;;;11.10;9.73;;;6.80;99.90;;;;;;4971881;28;20197;-76
2022/03/16 00:17:09;;;;;;;10.83;9.73;;;6.70;99.90;;;;;;4973938;28;20209;-79
2022/03/16 00:19:39;;;;;;;11.30;10.10;;;6.50;99.90;;;;;;4992268;28;20220;-77
2022/03/16 00:22:06;;;;;;;13.23;10.90;;;6.50;99.90;;;;;;4991685;28;20690;-76
2022/03/16 00:24:33;;;;;;;10.77;9.67;;;6.60;99.90;;;;;;4985853;28;20212;-77
2022/03/16 00:27:02;;;;;;;13.53;10.70;;;6.30;99.90;;;;;;4973142;28;20200;-76
2022/03/16 00:29:30;;;;;;;13.20;11.80;;;6.50;99.90;;;;;;4983019;28;20226;-77
2022/03/16 00:31:59;;;;;;;12.87;10.63;;;6.80;99.90;;;;;;5008824;28;20724;-76
2022/03/16 00:34:30;;;;;;;13.67;10.97;;;6.80;99.90;;;;;;4990596;28;20216;-77
2022/03/16 00:36:57;;;;;;;13.53;11.27;;;6.60;99.90;;;;;;4991185;28;20200;-77
2022/03/16 00:39:24;;;;;;;13.73;11.60;;;6.30;99.90;;;;;;4991214;28;20223;-76
2022/03/16 00:41:52;;;;;;;15.77;12.30;;;6.30;99.90;;;;;;4991278;28;20204;-77
2022/03/16 00:44:20;;;;;;;13.80;11.50;;;6.50;99.90;;;;;;5010582;28;20207;-76
2022/03/16 00:46:48;;;;;;;15.87;11.40;;;6.60;99.90;;;;;;5010475;28;20211;-79
2022/03/16 00:49:15;;;;;;;14.30;12.17;;;6.80;99.90;;;;;;5008474;28;20234;-79
2022/03/16 00:51:42;;;;;;;14.43;11.90;;;6.80;99.90;;;;;;4992072;28;20227;-76
2022/03/16 00:54:10;;;;;;;12.53;10.80;;;6.80;99.90;;;;;;5006967;28;20216;-76
2022/03/16 00:56:38;;;;;;;14.07;10.77;;;6.80;99.90;;;;;;5010405;28;20204;-76
2022/03/16 00:59:05;;;;;;;12.17;10.53;;;6.90;99.90;;;;;;5005949;28;20224;-77
2022/03/16 01:01:34;;;;;;;13.07;11.17;;;6.80;99.90;;;;;;4991075;28;20572;-77
2022/03/16 01:04:02;;;;;;;14.73;12.03;;;6.60;99.90;;;;;;5010632;28;20214;-76
2022/03/16 01:06:29;;;;;;;13.17;10.80;;;6.50;99.90;;;;;;5008258;28;20204;-77
2022/03/16 01:08:56;;;;;;;13.40;11.23;;;6.60;99.90;;;;;;5007634;28;20226;-78
2022/03/16 01:11:24;;;;;;;12.40;10.30;;;6.50;99.90;;;;;;5001104;28;20215;-77
2022/03/16 01:13:51;;;;;;;12.67;10.07;;;6.50;99.90;;;;;;5001487;28;20210;-76
2022/03/16 01:16:19;;;;;;;11.13;9.73;;;6.60;99.90;;;;;;5006821;28;20204;-77
2022/03/16 01:18:47;;;;;;;11.17;9.90;;;6.60;99.90;;;;;;5004479;28;20225;-76
2022/03/16 01:21:15;;;;;;;11.13;9.93;;;6.70;99.90;;;;;;4991986;28;20203;-77
2022/03/16 01:23:45;;;;;;;11.60;10.40;;;6.70;99.90;;;;;;5005744;28;20208;-77
2022/03/16 01:26:13;;;;;;;12.63;10.13;;;6.70;99.90;;;;;;4997279;28;20191;-76
2022/03/16 01:28:40;;;;;;;11.27;9.13;;;6.60;99.90;;;;;;5004539;28;20227;-77
2022/03/16 01:31:08;;;;;;;10.30;9.20;;;6.70;99.90;;;;;;4973338;28;20196;-77
2022/03/16 01:33:35;;;;;;;10.73;9.03;;;6.50;99.90;;;;;;4974089;28;20231;-78
2022/03/16 01:36:08;;;;;;;10.70;9.60;;;6.50;99.90;;;;;;4992136;28;20205;-76
2022/03/16 01:38:36;;;;;;;10.60;9.50;;;6.50;99.90;;;;;;4987793;28;20213;-77
2022/03/16 01:41:03;;;;;;;9.83;8.90;;;6.30;99.90;;;;;;4971848;28;20208;-77
2022/03/16 01:43:33;;;;;;;11.13;9.93;;;6.20;99.90;;;;;;4982211;28;20196;-77
2022/03/16 01:46:01;;;;;;;10.13;8.77;;;6.10;99.90;;;;;;4984509;28;20199;-76
2022/03/16 01:48:29;;;;;;;11.73;10.43;;;6.10;99.90;;;;;;4999719;28;20222;-76
2022/03/16 01:50:57;;;;;;;12.73;10.40;;;5.90;99.90;;;;;;4980838;28;20192;-75
2022/03/16 01:53:26;;;;;;;12.53;9.97;;;5.90;99.90;;;;;;5000437;28;20255;-76
2022/03/16 01:55:54;;;;;;;11.43;10.20;;;5.90;99.90;;;;;;4994910;28;20211;-75
2022/03/16 01:58:21;;;;;;;11.70;10.27;;;5.90;99.90;;;;;;4975777;28;20267;-76
2022/03/16 02:00:49;;;;;;;9.70;8.70;;;6.00;99.90;;;;;;4976064;28;20251;-75
2022/03/16 02:03:17;;;;;;;10.93;9.50;;;6.00;99.90;;;;;;4976326;28;20196;-77
2022/03/16 02:05:46;;;;;;;11.50;10.23;;;6.00;99.90;;;;;;4978001;28;20219;-76
2022/03/16 02:08:14;;;;;;;11.50;10.30;;;6.10;99.90;;;;;;4977168;28;20694;-75
2022/03/16 02:10:42;;;;;;;13.17;10.00;;;6.10;99.90;;;;;;4985567;28;20235;-76
2022/03/16 02:13:11;;;;;;;11.33;10.10;;;6.10;99.90;;;;;;4971115;28;20224;-76
2022/03/16 02:15:39;;;;;;;12.50;10.37;;;6.00;99.90;;;;;;4996380;28;20197;-75
2022/03/16 02:18:07;;;;;;;12.37;10.40;;;5.70;99.90;;;;;;4990192;28;20238;-77
2022/03/16 02:20:34;;;;;;;13.17;11.10;;;5.50;99.90;;;;;;4990433;28;20195;-77
2022/03/16 02:23:05;;;;;;;12.03;10.33;;;5.70;99.90;;;;;;4975292;28;20205;-75
2022/03/16 02:25:35;;;;;;;11.77;9.70;;;5.80;99.90;;;;;;4975153;28;20216;-77
2022/03/16 02:28:02;;;;;;;10.93;9.53;;;5.90;99.90;;;;;;4973353;28;20236;-77
2022/03/16 02:30:31;;;;;;;12.43;10.53;;;6.00;99.90;;;;;;4988804;28;20212;-77
2022/03/16 02:32:58;;;;;;;11.73;10.23;;;5.90;99.90;;;;;;4989526;28;20241;-77
2022/03/16 02:35:31;;;;;;;13.93;10.97;;;5.90;99.90;;;;;;4989243;28;20219;-76
2022/03/16 02:37:59;;;;;;;15.23;12.97;;;5.80;99.90;;;;;;4974562;28;20579;-77
2022/03/16 02:40:27;;;;;;;20.10;13.13;;;5.60;99.90;;;;;;4995674;28;20214;-76
2022/03/16 02:42:55;;;;;;;15.73;13.20;;;5.50;99.90;;;;;;4974689;28;20198;-77
2022/03/16 02:45:23;;;;;;;15.63;12.27;;;5.50;99.90;;;;;;4984479;28;20218;-76
2022/03/16 02:47:50;;;;;;;16.83;12.30;;;5.80;99.90;;;;;;4986856;28;20225;-77
2022/03/16 02:50:19;;;;;;;17.47;13.73;;;6.00;99.90;;;;;;4990843;28;20570;-77
2022/03/16 02:52:47;;;;;;;14.37;12.20;;;5.90;99.90;;;;;;4983333;28;20296;-77
2022/03/16 02:55:15;;;;;;;14.70;11.43;;;5.90;99.90;;;;;;4990851;28;20678;-77
2022/03/16 02:57:43;;;;;;;14.90;11.93;;;5.90;99.90;;;;;;4982727;28;20223;-77
2022/03/16 03:00:13;;;;;;;13.83;11.70;;;6.00;99.90;;;;;;4973372;28;20210;-76
2022/03/16 03:02:42;;;;;;;13.70;12.07;;;6.10;99.90;;;;;;4990055;28;20187;-76
2022/03/16 03:05:10;;;;;;;15.63;11.40;;;6.10;99.90;;;;;;4991622;28;20229;-77
2022/03/16 03:07:37;;;;;;;14.43;11.87;;;6.10;99.90;;;;;;4984416;28;20204;-77
2022/03/16 03:10:05;;;;;;;13.33;10.23;;;6.10;99.90;;;;;;4981231;28;20204;-76
2022/03/16 03:12:35;;;;;;;12.17;10.57;;;6.10;99.90;;;;;;4986615;28;20212;-76
2022/03/16 03:15:19;;;;;;;13.23;10.63;;;6.00;99.90;;;;;;4987409;28;20199;-77
2022/03/16 03:17:46;;;;;;;12.67;10.73;;;6.10;99.90;;;;;;4988886;28;20219;-77
2022/03/16 03:20:14;;;;;;;14.30;11.10;;;6.10;99.90;;;;;;4989549;28;20200;-77
2022/03/16 03:22:42;;;;;;;11.40;10.20;;;6.00;99.90;;;;;;4984860;28;20192;-77
2022/03/16 03:25:11;;;;;;;12.70;10.23;;;5.90;99.90;;;;;;4977125;28;20203;-77
2022/03/16 03:27:39;;;;;;;13.00;10.50;;;5.90;99.90;;;;;;4983935;28;20200;-77
2022/03/16 03:30:08;;;;;;;14.10;10.40;;;6.10;99.90;;;;;;4993863;28;20230;-77
2022/03/16 03:32:38;;;;;;;11.43;10.17;;;6.00;99.90;;;;;;5002345;28;20219;-76
2022/03/16 03:35:06;;;;;;;12.57;10.03;;;6.00;99.90;;;;;;4983927;28;20215;-76
2022/03/16 03:37:34;;;;;;;12.53;10.57;;;5.90;99.90;;;;;;4985000;28;20246;-77
2022/03/16 03:40:02;;;;;;;12.00;9.87;;;5.90;99.90;;;;;;5002955;28;20201;-77
2022/03/16 03:42:30;;;;;;;11.57;9.83;;;5.90;99.90;;;;;;4986648;28;20203;-77
2022/03/16 03:44:57;;;;;;;13.60;10.53;;;5.80;99.90;;;;;;4986309;28;20208;-77
2022/03/16 03:47:24;;;;;;;10.80;9.67;;;5.80;99.90;;;;;;5000616;28;20204;-77
2022/03/16 03:49:53;;;;;;;12.03;10.23;;;5.80;99.90;;;;;;4985496;28;20585;-76
2022/03/16 03:52:21;;;;;;;14.60;10.57;;;5.80;99.90;;;;;;5007587;28;20661;-77
2022/03/16 03:54:48;;;;;;;12.90;10.27;;;5.90;99.90;;;;;;5002313;28;20219;-76
2022/03/16 03:57:20;;;;;;;14.40;10.17;;;6.10;99.90;;;;;;5003006;28;20196;-75
2022/03/16 03:59:47;;;;;;;11.50;10.30;;;6.00;99.90;;;;;;5004978;28;20195;-76
2022/03/16 04:02:14;;;;;;;14.27;10.57;;;5.90;99.90;;;;;;5009764;28;20206;-77
2022/03/16 04:04:42;;;;;;;14.17;10.67;;;5.80;99.90;;;;;;5001804;28;20202;-77
2022/03/16 04:07:10;;;;;;;13.03;9.93;;;5.70;99.90;;;;;;5007837;28;20199;-77
2022/03/16 04:09:38;;;;;;;11.03;9.57;;;5.60;99.90;;;;;;5004902;28;20253;-77
2022/03/16 04:12:06;;;;;;;11.13;9.87;;;5.70;99.90;;;;;;5012058;28;20200;-76
2022/03/16 04:14:34;;;;;;;12.20;9.43;;;5.70;99.90;;;;;;5016922;28;20200;-77
2022/03/16 04:17:04;;;;;;;12.03;9.73;;;5.70;99.90;;;;;;5010367;28;20195;-76
2022/03/16 04:19:32;;;;;;;10.67;9.43;;;5.70;99.90;;;;;;4989769;28;20223;-76
2022/03/16 04:21:59;;;;;;;14.23;10.40;;;5.80;99.90;;;;;;5007609;28;20210;-78
2022/03/16 04:24:28;;;;;;;13.33;10.37;;;5.80;99.90;;;;;;4995023;28;20203;-77
2022/03/16 04:26:55;;;;;;;12.27;9.30;;;5.70;99.90;;;;;;4988097;28;20207;-76
2022/03/16 04:29:23;;;;;;;12.63;9.53;;;5.60;99.90;;;;;;5004987;28;20232;-77
2022/03/16 04:31:50;;;;;;;10.33;9.23;;;5.60;99.90;;;;;;4991376;28;20204;-76
2022/03/16 04:34:18;;;;;;;12.07;9.30;;;5.50;99.90;;;;;;4991997;28;20221;-77
2022/03/16 04:36:45;;;;;;;12.00;9.67;;;5.50;99.90;;;;;;4990668;28;20211;-77
2022/03/16 04:39:12;;;;;;;14.07;10.00;;;5.60;99.90;;;;;;4988160;28;20219;-77
2022/03/16 04:41:41;;;;;;;12.63;9.03;;;5.60;99.90;;;;;;5005023;28;20207;-78
2022/03/16 04:44:10;;;;;;;11.50;9.07;;;5.60;99.90;;;;;;5005203;28;20195;-77
2022/03/16 04:46:38;;;;;;;12.20;9.30;;;5.60;99.90;;;;;;5006645;28;20204;-77
2022/03/16 04:49:05;;;;;;;13.03;9.03;;;5.60;99.90;;;;;;5004039;28;20281;-76
2022/03/16 04:51:33;;;;;;;9.87;8.87;;;5.50;99.90;;;;;;4988492;28;20197;-77
2022/03/16 04:54:00;;;;;;;11.07;9.20;;;5.30;99.90;;;;;;4986079;28;20219;-77
2022/03/16 04:56:28;;;;;;;12.10;9.30;;;5.20;99.90;;;;;;4986012;28;20208;-77
2022/03/16 04:58:56;;;;;;;12.80;9.23;;;5.30;99.90;;;;;;4985462;28;20230;-76
2022/03/16 05:01:24;;;;;;;11.33;8.70;;;5.50;99.90;;;;;;5004771;28;20217;-77
2022/03/16 05:03:51;;;;;;;11.17;9.47;;;5.50;99.90;;;;;;4988272;28;20201;-76
2022/03/16 05:06:19;;;;;;;12.83;9.47;;;5.50;99.90;;;;;;5002214;28;20211;-76
2022/03/16 05:08:47;;;;;;;11.07;9.50;;;5.70;99.90;;;;;;5000850;28;20227;-78
2022/03/16 05:11:15;;;;;;;12.53;10.37;;;5.60;99.90;;;;;;5006807;28;20204;-77
2022/03/16 05:13:43;;;;;;;11.50;9.17;;;5.70;99.90;;;;;;4991699;28;20224;-77
2022/03/16 05:16:12;;;;;;;12.23;9.43;;;5.80;99.90;;;;;;4990197;28;20574;-76
2022/03/16 05:18:40;;;;;;;12.57;9.67;;;5.90;99.90;;;;;;4990559;28;20228;-80
2022/03/16 05:21:08;;;;;;;11.77;9.97;;;5.90;99.90;;;;;;4988711;28;20211;-79
2022/03/16 05:23:35;;;;;;;13.93;10.53;;;5.90;99.90;;;;;;5005404;28;20207;-80
2022/03/16 05:26:03;;;;;;;12.60;9.90;;;5.90;99.90;;;;;;4990481;28;20199;-79
2022/03/16 05:28:30;;;;;;;12.70;10.27;;;6.00;99.90;;;;;;5005718;28;20224;-79
2022/03/16 05:30:58;;;;;;;12.30;9.90;;;6.10;99.90;;;;;;4996564;28;20216;-80
2022/03/16 05:33:26;;;;;;;11.80;9.00;;;6.10;99.90;;;;;;4991536;28;20199;-79
2022/03/16 05:35:54;;;;;;;10.43;9.17;;;6.30;99.90;;;;;;4991684;28;20647;-79
2022/03/16 05:38:21;;;;;;;12.70;10.10;;;6.30;99.90;;;;;;4987209;28;20220;-79
2022/03/16 05:40:49;;;;;;;12.40;10.00;;;6.30;99.90;;;;;;4987778;28;20200;-79
2022/03/16 05:43:16;;;;;;;12.07;9.93;;;6.40;99.90;;;;;;4987350;28;20216;-80
2022/03/16 05:45:43;;;;;;;12.77;10.00;;;6.40;99.90;;;;;;5005796;28;20208;-79
2022/03/16 05:48:11;;;;;;;10.57;9.40;;;6.40;99.90;;;;;;4991757;28;20235;-79
2022/03/16 05:50:44;;;;;;;13.77;10.20;;;6.30;99.90;;;;;;4991872;28;20208;-78
2022/03/16 05:53:12;;;;;;;13.43;9.87;;;6.40;99.90;;;;;;4987629;28;20215;-79
2022/03/16 05:55:40;;;;;;;12.23;10.03;;;6.50;99.90;;;;;;5007362;28;20232;-79
2022/03/16 05:58:08;;;;;;;12.33;9.60;;;6.40;99.90;;;;;;4990817;28;20220;-80
2022/03/16 06:00:37;;;;;;;13.37;10.23;;;6.40;99.90;;;;;;4999081;28;20204;-80
2022/03/16 06:03:05;;;;;;;12.87;9.37;;;6.60;99.90;;;;;;4987396;28;20207;-76
2022/03/16 06:05:32;;;;;;;12.63;9.80;;;6.80;99.90;;;;;;4988576;28;20203;-76
2022/03/16 06:08:02;;;;;;;10.63;8.80;;;6.90;99.90;;;;;;4991240;28;20227;-76
2022/03/16 06:10:29;;;;;;;12.50;9.47;;;6.80;99.90;;;;;;4985710;28;20215;-76
2022/03/16 06:12:58;;;;;;;10.27;8.40;;;6.80;99.90;;;;;;4990068;28;20200;-76
2022/03/16 06:15:27;;;;;;;11.80;8.93;;;6.90;99.90;;;;;;4991329;28;20223;-76
2022/03/16 06:17:56;;;;;;;11.50;8.63;;;6.80;99.90;;;;;;4988119;28;20228;-75
2022/03/16 06:20:24;;;;;;;10.60;8.87;;;6.80;99.90;;;;;;4988046;28;20655;-77
2022/03/16 06:22:52;;;;;;;10.90;9.13;;;6.80;99.90;;;;;;4987235;28;20207;-77
2022/03/16 06:25:22;;;;;;;12.57;9.53;;;6.90;99.90;;;;;;4991620;28;20676;-77
2022/03/16 06:27:50;;;;;;;13.00;10.03;;;7.00;99.90;;;;;;4990355;28;20216;-77
2022/03/16 06:30:20;;;;;;;11.83;9.20;;;7.10;99.90;;;;;;4987959;28;20220;-75
2022/03/16 06:32:48;;;;;;;13.33;9.47;;;7.20;99.90;;;;;;4982105;28;20200;-77
2022/03/16 06:35:17;;;;;;;11.33;8.23;;;7.20;99.90;;;;;;4988669;28;20232;-77
2022/03/16 06:37:46;;;;;;;12.33;8.47;;;7.40;99.90;;;;;;4987404;28;20236;-77
2022/03/16 06:40:15;;;;;;;14.03;9.80;;;7.30;99.90;;;;;;5005086;28;20206;-77
2022/03/16 06:42:49;;;;;;;13.47;10.17;;;7.40;99.90;;;;;;4990036;28;20205;-77
2022/03/16 06:45:17;;;;;;;12.90;9.67;;;7.40;99.90;;;;;;4989992;28;20650;-77
2022/03/16 06:47:44;;;;;;;10.37;8.83;;;7.50;99.90;;;;;;5004064;28;20591;-77
2022/03/16 06:50:12;;;;;;;11.80;9.80;;;7.50;99.90;;;;;;5003406;28;20524;-77
2022/03/16 06:52:40;;;;;;;13.53;9.37;;;7.50;99.90;;;;;;4989338;28;20220;-77
2022/03/16 06:55:08;;;;;;;14.10;10.17;;;7.60;99.90;;;;;;4981106;28;20216;-77
2022/03/16 06:57:37;;;;;;;11.40;9.60;;;7.70;99.90;;;;;;4987857;28;20208;-77
2022/03/16 07:00:13;;;;;;;13.50;9.10;;;7.70;99.90;;;;;;4990587;28;20192;-77
2022/03/16 07:02:51;;;;;;;14.47;10.67;;;7.80;99.90;;;;;;5006765;28;20666;-77
2022/03/16 07:05:20;;;;;;;12.27;10.10;;;7.90;99.90;;;;;;4999931;28;20283;-77
2022/03/16 07:07:48;;;;;;;12.60;9.83;;;7.90;99.90;;;;;;5001860;28;20235;-76
2022/03/16 07:10:16;;;;;;;13.60;10.10;;;7.90;99.90;;;;;;4984770;28;20204;-76
2022/03/16 07:12:44;;;;;;;12.00;9.47;;;8.00;99.90;;;;;;4984954;28;20702;-76
2022/03/16 07:15:12;;;;;;;12.67;10.90;;;8.00;99.90;;;;;;4984225;28;20223;-76
2022/03/16 07:17:40;;;;;;;14.50;10.70;;;8.00;99.90;;;;;;4984496;28;20219;-76
2022/03/16 07:20:08;;;;;;;13.00;10.50;;;8.10;99.90;;;;;;5002838;28;20709;-76
2022/03/16 07:22:36;;;;;;;12.00;9.60;;;8.10;99.90;;;;;;4986397;28;20219;-77
2022/03/16 07:25:04;;;;;;;11.67;10.07;;;8.10;99.90;;;;;;4998748;28;20200;-76
2022/03/16 07:27:31;;;;;;;13.87;10.63;;;8.20;99.90;;;;;;4983325;28;20215;-76
2022/03/16 07:29:59;;;;;;;13.87;10.83;;;8.10;99.90;;;;;;4983479;28;20212;-76
2022/03/16 07:32:27;;;;;;;14.07;10.63;;;8.30;99.90;;;;;;4985547;28;20216;-76
2022/03/16 07:34:55;;;;;;;14.93;10.53;;;8.30;99.90;;;;;;4987758;28;20671;-77
2022/03/16 07:37:24;;;;;;;13.13;10.87;;;8.30;99.90;;;;;;5013028;28;20227;-76
2022/03/16 07:39:52;;;;;;;11.80;10.33;;;8.40;99.90;;;;;;4981078;28;20215;-75
2022/03/16 07:42:19;;;;;;;16.33;11.20;;;8.50;99.90;;;;;;4985330;28;20201;-76
2022/03/16 07:44:49;;;;;;;13.83;11.17;;;8.50;99.90;;;;;;4992040;28;20655;-76
2022/03/16 07:47:16;;;;;;;15.30;11.60;;;8.50;99.90;;;;;;4990007;28;20192;-76
2022/03/16 07:49:45;;;;;;;14.93;11.87;;;8.50;99.90;;;;;;4987215;28;20246;-77
2022/03/16 07:52:12;;;;;;;14.97;11.07;;;8.60;99.90;;;;;;4991677;28;20193;-76
2022/03/16 07:54:39;;;;;;;15.20;11.63;;;8.60;99.90;;;;;;4990754;28;20567;-76
2022/03/16 07:57:08;;;;;;;14.30;11.20;;;8.70;99.90;;;;;;5005868;28;20227;-77
2022/03/16 07:59:35;;;;;;;14.07;10.90;;;8.60;99.90;;;;;;4980611;28;20227;-76
2022/03/16 08:02:03;;;;;;;13.33;10.57;;;8.60;99.90;;;;;;4992440;28;20192;-76
2022/03/16 08:04:30;;;;;;;15.30;10.33;;;8.60;99.90;;;;;;5009508;28;20200;-76
2022/03/16 08:06:59;;;;;;;13.77;11.63;;;8.70;99.90;;;;;;5009543;28;20211;-77
2022/03/16 08:09:27;;;;;;;14.20;11.67;;;8.90;99.90;;;;;;5005889;28;20229;-77
2022/03/16 08:11:54;;;;;;;16.80;11.80;;;8.90;99.90;;;;;;4991831;28;20207;-77
2022/03/16 08:14:21;;;;;;;15.67;11.97;;;9.00;99.90;;;;;;4991712;28;20219;-77
2022/03/16 08:16:49;;;;;;;18.37;11.57;;;9.00;99.90;;;;;;4990843;28;20224;-76
2022/03/16 08:19:16;;;;;;;12.93;11.27;;;9.10;99.90;;;;;;5003658;28;20224;-76
2022/03/16 08:21:44;;;;;;;14.10;11.27;;;9.30;99.90;;;;;;5007325;28;20196;-76
2022/03/16 08:24:13;;;;;;;15.07;11.60;;;9.30;99.90;;;;;;4987612;28;20694;-76
2022/03/16 08:26:41;;;;;;;17.30;11.57;;;9.30;99.90;;;;;;4989487;28;20192;-76
2022/03/16 08:29:11;;;;;;;14.80;11.50;;;9.20;99.90;;;;;;4992652;28;20547;-77
2022/03/16 08:31:38;;;;;;;12.90;11.30;;;9.20;99.90;;;;;;5010730;28;20666;-76
2022/03/16 08:34:06;;;;;;;14.23;11.87;;;9.50;99.90;;;;;;4993096;28;20209;-77
2022/03/16 08:36:34;;;;;;;15.73;11.03;;;9.60;99.90;;;;;;5008991;28;20227;-76
2022/03/16 08:39:04;;;;;;;14.30;11.47;;;9.70;99.90;;;;;;4990201;28;20216;-75
2022/03/16 08:41:33;;;;;;;15.17;11.67;;;9.80;99.90;;;;;;4995927;28;20214;-76
2022/03/16 08:44:02;;;;;;;15.67;11.43;;;9.80;99.90;;;;;;5008642;28;20201;-77
2022/03/16 08:46:29;;;;;;;15.90;11.60;;;10.00;99.90;;;;;;5011476;28;20654;-77
2022/03/16 08:48:57;;;;;;;13.67;11.80;;;10.00;99.90;;;;;;4995598;28;20222;-76
2022/03/16 08:51:24;;;;;;;14.73;11.70;;;10.00;99.90;;;;;;4997218;28;20196;-76
2022/03/16 08:53:51;;;;;;;14.20;11.30;;;10.10;99.90;;;;;;5011758;28;20203;-76
2022/03/16 08:56:19;;;;;;;13.53;10.97;;;10.20;99.90;;;;;;5016033;28;20208;-76
2022/03/16 08:58:47;;;;;;;13.93;10.60;;;10.30;99.90;;;;;;5011995;28;20216;-76
2022/03/16 09:01:15;;;;;;;15.93;11.17;;;10.30;99.90;;;;;;5014246;28;20203;-76
2022/03/16 09:03:42;;;;;;;15.40;12.27;;;10.40;99.90;;;;;;4995743;28;20199;-76
2022/03/16 09:06:09;;;;;;;15.30;11.50;;;10.40;99.90;;;;;;5012120;28;20195;-76
2022/03/16 09:08:37;;;;;;;13.63;11.27;;;10.40;99.90;;;;;;4994525;28;20226;-76
2022/03/16 09:11:04;;;;;;;15.43;11.77;;;10.50;99.90;;;;;;4994914;28;20192;-75
2022/03/16 09:13:33;;;;;;;14.70;12.00;;;10.50;99.90;;;;;;5012366;28;20191;-76
2022/03/16 09:16:02;;;;;;;14.37;11.77;;;10.60;99.90;;;;;;5014743;28;20274;-76
2022/03/16 09:18:29;;;;;;;14.97;11.53;;;10.70;99.90;;;;;;5011252;28;20220;-76
2022/03/16 09:21:00;;;;;;;17.53;11.93;;;10.80;99.90;;;;;;4995121;28;20211;-76
2022/03/16 09:23:31;;;;;;;13.20;10.53;;;10.90;99.90;;;;;;4995511;28;20215;-76
2022/03/16 09:25:59;;;;;;;14.43;11.33;;;11.00;99.90;;;;;;5013233;28;20205;-76
2022/03/16 09:28:27;;;;;;;16.33;11.53;;;11.10;99.90;;;;;;5011387;28;20227;-76
2022/03/16 09:30:54;;;;;;;12.43;10.87;;;11.00;99.90;;;;;;5003200;28;20227;-77
2022/03/16 09:33:23;;;;;;;13.70;10.47;;;11.10;99.90;;;;;;4989937;28;20417;-76
2022/03/16 09:35:54;;;;;;;11.63;10.43;;;11.10;99.90;;;;;;4998999;28;20215;-75
2022/03/16 09:38:21;;;;;;;12.30;10.57;;;11.00;99.90;;;;;;4974658;28;20216;-76
2022/03/16 09:40:52;;;;;;;13.20;10.73;;;11.10;99.90;;;;;;4996698;28;20679;-76
2022/03/16 09:43:23;;;;;;;12.27;10.23;;;11.20;99.90;;;;;;4987408;28;20207;-76
2022/03/16 09:45:55;;;;;;;14.33;10.87;;;11.20;99.90;;;;;;4979026;28;20192;-76
2022/03/16 09:48:24;;;;;;;12.03;9.20;;;11.00;99.90;;;;;;4984141;28;20233;-77
2022/03/16 09:50:53;;;;;;;12.07;9.17;;;10.90;99.90;;;;;;4984252;28;20196;-77
2022/03/16 09:53:22;;;;;;;11.80;8.20;;;11.60;99.90;;;;;;4978843;28;20207;-77
2022/03/16 09:55:52;;;;;;;10.53;8.77;;;12.00;99.90;;;;;;4992554;28;20220;-77
2022/03/16 09:58:21;;;;;;;11.07;9.57;;;12.20;99.90;;;;;;4990270;28;20220;-77
2022/03/16 10:00:48;;;;;;;11.37;8.60;;;12.10;99.90;;;;;;4989546;28;20201;-78
2022/03/16 10:03:16;;;;;;;10.53;8.90;;;12.20;99.90;;;;;;4987714;28;20659;-78
2022/03/16 10:05:48;;;;;;;13.15;10.77;;;12.50;99.90;;;;;;4988689;28;20216;-77
2022/03/16 10:08:25;;;;;;;11.43;8.55;;;12.60;99.50;;;;;;4988534;28;20304;-78
2022/03/16 10:13:49;;;;;;;11.55;10.30;;;12.90;98.80;;;;;;4982045;28;20204;-78
2022/03/16 10:16:18;;;;;;;9.45;8.50;;;12.80;99.20;;;;;;4986395;28;20223;-78
2022/03/16 10:18:54;;;;;;;13.73;9.70;;;12.90;98.10;;;;;;4987459;28;20713;-78
2022/03/16 10:21:24;;;;;;;20.80;10.80;;;12.80;99.40;;;;;;4972536;28;20214;-77
2022/03/16 10:24:02;;;;;;;11.38;9.85;;;13.30;99.90;;;;;;4973576;28;20200;-78
2022/03/16 10:26:30;;;;;;;12.02;9.45;;;13.60;98.80;;;;;;4976518;28;20671;-78
2022/03/16 10:29:01;;;;;;;10.95;8.90;;;13.50;99.00;;;;;;4968905;28;20603;-78
2022/03/16 10:31:29;;;;;;;10.30;8.27;;;13.20;98.50;;;;;;4996506;28;20211;-78
2022/03/16 10:33:58;;;;;;;11.05;8.02;;;13.20;96.40;;;;;;4988497;28;20192;-79
2022/03/16 10:36:41;;;;;;;10.25;8.18;;;13.40;97.00;;;;;;4982871;28;20235;-76
2022/03/16 10:39:08;;;;;;;9.02;7.60;;;13.50;95.80;;;;;;4983192;28;20239;-79
2022/03/16 10:47:11;;;;;;;9.40;8.18;;;13.60;95.10;;;;;;4984177;28;20562;-79
2022/03/16 10:49:39;;;;;;;10.02;8.85;;;13.50;94.70;;;;;;5000996;28;20231;-78
2022/03/16 10:52:11;;;;;;;9.20;8.25;;;13.70;95.30;;;;;;4984681;28;20208;-79
2022/03/16 10:54:39;;;;;;;9.02;8.13;;;13.50;95.90;;;;;;4995914;28;20216;-79
2022/03/16 10:57:10;;;;;;;12.30;9.43;;;13.50;95.30;;;;;;4983772;28;20220;-78
2022/03/16 10:59:38;;;;;;;11.93;9.40;;;12.90;94.60;;;;;;4984670;28;20224;-78
2022/03/16 11:02:12;;;;;;;10.05;8.95;;;12.70;95.30;;;;;;4980724;28;20212;-78
2022/03/16 11:04:40;;;;;;;10.13;8.98;;;12.80;95.40;;;;;;4985470;28;20200;-79
2022/03/16 11:07:09;;;;;;;10.13;8.73;;;13.10;95.50;;;;;;4984365;28;20654;-79
2022/03/16 11:09:39;;;;;;;11.50;9.15;;;13.30;96.10;;;;;;4980452;28;20224;-79
2022/03/16 11:14:53;;;;;;;11.75;9.40;;;13.40;94.80;;;;;;4986652;28;20192;-78
2022/03/16 11:17:22;;;;;;;10.55;8.93;;;13.30;94.30;;;;;;4996550;28;20228;-79
2022/03/16 11:19:52;;;;;;;10.63;8.48;;;13.40;94.20;;;;;;4980992;28;20228;-79
2022/03/16 11:22:24;;;;;;;10.38;8.73;;;13.30;93.70;;;;;;4980637;28;20203;-79
2022/03/16 11:24:57;;;;;;;10.95;9.07;;;13.40;93.60;;;;;;4999817;28;20196;-79
2022/03/16 11:27:46;;;;;;;8.88;7.90;;;13.50;94.00;;;;;;4984017;28;20211;-77
2022/03/16 11:30:25;;;;;;;9.50;8.50;;;13.50;93.90;;;;;;4991673;28;20211;-77
2022/03/16 11:32:59;;;;;;;9.52;7.78;;;13.80;93.30;;;;;;4984690;28;20207;-77
2022/03/16 11:35:36;;;;;;;10.90;8.60;;;13.90;93.60;;;;;;4969506;28;20284;-79
2022/03/16 11:38:11;;;;;;;10.75;8.43;;;14.20;93.10;;;;;;4985902;28;20223;-79
2022/03/16 11:40:41;;;;;;;9.07;8.18;;;14.00;92.70;;;;;;4990157;28;20199;-79
2022/03/16 11:43:17;;;;;;;9.65;8.07;;;14.10;92.10;;;;;;4988168;28;20215;-79
2022/03/16 11:45:48;;;;;;;9.00;8.07;;;14.00;91.40;;;;;;4990035;28;20203;-79
2022/03/16 11:48:40;;;;;;;9.15;7.82;;;14.00;91.90;;;;;;5000038;28;20230;-79
2022/03/16 11:51:16;;;;;;;9.63;7.68;;;14.20;90.30;;;;;;4986852;28;20199;-79
2022/03/16 11:54:11;;;;;;;11.45;7.88;;;14.20;90.20;;;;;;4984431;28;20195;-78
2022/03/16 11:56:50;;;;;;;8.63;7.70;;;14.40;91.20;;;;;;5003382;28;20207;-79
2022/03/16 11:59:32;;;;;;;7.85;6.93;;;14.30;89.80;;;;;;5000594;28;20710;-79
2022/03/16 12:02:10;;;;;;;9.82;8.15;;;14.50;92.40;;;;;;5000159;28;20204;-78
2022/03/16 12:04:40;;;;;;;9.32;7.85;;;14.50;89.50;;;;;;5003920;28;20204;-78
2022/03/16 12:07:10;;;;;;;9.10;7.80;;;14.60;88.40;;;;;;4989445;28;20199;-78
2022/03/16 12:09:45;;;;;;;9.85;8.60;;;14.60;87.50;;;;;;5008332;28;20223;-78
2022/03/16 12:15:15;;;;;;;8.63;7.72;;;14.90;84.70;;;;;;5005958;28;20228;-78
2022/03/16 12:18:23;;;;;;;7.82;6.93;;;15.00;84.10;;;;;;5005472;28;20226;-78
2022/03/16 12:20:56;;;;;;;7.90;7.10;;;15.10;84.40;;;;;;4998466;28;20207;-78
2022/03/16 12:25:08;;;;;;;8.27;7.22;;;15.30;84.50;;;;;;4991940;28;20215;-78
2022/03/16 12:29:24;;;;;;;8.93;7.30;;;15.10;84.60;;;;;;4974090;28;20220;-80
2022/03/16 12:31:54;;;;;;;9.35;8.43;;;15.50;83.00;;;;;;4985986;28;20600;-81
2022/03/16 12:34:24;;;;;;;10.02;8.60;;;15.30;82.40;;;;;;4970072;28;20209;-80
2022/03/16 12:36:52;;;;;;;8.43;7.32;;;15.00;81.40;;;;;;4978807;28;20689;-81
2022/03/16 12:39:19;;;;;;;8.07;6.93;;;15.30;80.40;;;;;;4972947;28;20205;-80
2022/03/16 12:44:50;;;;;;;9.27;7.65;;;15.70;82.60;;;;;;4990329;28;20713;-80
2022/03/16 12:47:26;;;;;;;8.35;6.55;;;16.30;81.00;;;;;;4992086;28;20251;-83
2022/03/16 12:49:54;;;;;;;9.57;7.72;;;16.70;80.80;;;;;;4997332;28;20209;-82
2022/03/16 12:52:22;;;;;;;11.05;8.27;;;16.20;79.10;;;;;;4978990;28;20201;-83
2022/03/16 12:54:49;;;;;;;7.35;6.72;;;16.10;77.80;;;;;;4992017;28;20198;-83
2022/03/16 12:57:18;;;;;;;8.02;7.25;;;17.40;78.50;;;;;;4994902;28;20687;-81
2022/03/16 12:59:49;;;;;;;8.45;7.38;;;17.60;77.90;;;;;;4994605;28;20572;-81
2022/03/16 13:02:20;;;;;;;7.50;6.80;;;17.40;76.20;;;;;;4978221;28;20216;-81
2022/03/16 13:04:52;;;;;;;9.40;7.90;;;17.30;77.70;;;;;;4994383;28;20569;-82
2022/03/16 13:07:20;;;;;;;8.05;7.25;;;17.30;75.00;;;;;;4994886;28;20726;-81
2022/03/16 13:09:48;;;;;;;8.75;7.25;;;17.70;72.40;;;;;;4983422;28;20205;-82
2022/03/16 13:12:18;;;;;;;8.32;7.53;;;17.40;73.40;;;;;;4995672;28;20676;-81